Airfield :
LOGIN :

Register | Disclaimer

   EN    FR    IT 

 










Legend :    VFR   Marginal VFR   IFR   Intensive IFR   Very Intensive IFR
Visi :
Ceiling :
>= 8 km
>= 3000ft
5 to 8 km
1000 to 3000 ft
1500m to 5 km
500 to 1000 ft
800 to 1500m
200 to 500 ft
< 800m
< 200 ft
Symbols :   Thunderstorms  Fog  Heavy snow  Heavy precipitations  Wind > 20 kt
SIGMETs :     Misc.  Thunderstorms  Icing  Turbulence  Mountain Waves  Volcanic Ashes







- Airport Elevation : 1487 ft
- IATA code : MUC


EDDM - München Franz Josef Strauss

CURRENT METAR :
  • 190220Z 25018KT 9000 -RASN SCT009 BKN014 02/00 Q1015 TEMPO 3000 -SN

EXPIRED METARs :
  • 190150Z 25022KT 9999 -RA SCT020 BKN060 03/M01 Q1016 TEMPO 3000 -SN
  • 190120Z 25015KT 9999 SCT035 BKN060 03/M02 Q1016 NOSIG
  • 190050Z 25016KT CAVOK 03/M02 Q1016 NOSIG
  • 190020Z 25015KT CAVOK 03/M02 Q1017 NOSIG
  • 182350Z 24013KT CAVOK 03/M02 Q1017 NOSIG

TAF TAF EDDM
Valid from the 19 at 00:00 until the 20 at 06:00 UTC


182300Z 1900/2006 25015G25KT 9999 SCT012 BKN025
TEMPO 1902/1910 4000 -RADZ BKN010
PROB30
TEMPO 1904/1908 2500 SNRA BKN007
PROB30
TEMPO 1910/1922 30020G30KT 2500 SHGSSN BKN012CB
BECMG 1920/1922 26012KT
No reported NOTAMs for that airfield.



MET'MAP, your aeronautical weather chart ! - Copyright ORBIFLY December 2007 - Disclaimer

ORBIFLY MET'MAP TEAM :

Programming & Development : Alexandra Zaïnal
Concept & Development : Baudouin d'Aumeries
Co-Development & Prog : Marc-Olivier Méhu
Technical & hardware support : Manuel Goepfert

Contact : metmap@orbifly.com




SOURCES & CREDITS :

   NOAA